Terminal Aerodrome Forecast
Issued by NWS

Home | Current Version | Previous Version | Text Only | Print | Product List | Glossary Off
Versions: 1 2 3 4 5 6 7 8 9 10 11 12 13 14 15 16 17 18 19 20

000
FTUS41 KCLE 142328
TAFFDY
TAF
KFDY 142328Z 1500/1524 VRB03KT P6SM FEW250
     FM150600 21004KT P6SM BKN120
     FM151300 22010KT P6SM OVC040
     FM151700 25015G25KT P6SM OVC025
     FM152100 26012KT P6SM BKN035=

USA.gov is the U.S. government's official web portal to all federal, state and local government web resources and services.